ěÝzenÝ letovÚho provozu ╚eskÚ republiky
Letiste: LKBC Aktualizace: 24.09.2020 16:33:25  UTC
 METAR LKBC 24.09. 16:30 RRA
METAR LKBC 241630Z AUTO 13004KT 9999 SCT150 19/13 Q1008=